Time;durP1;ratioP1;P1;durP2;ratioP2;P2;SDS_P1;SDS_P2;PMS_P1;PMS_P2;Temp;Humidity;BMP_temperature;BMP_pressure;BME280_temperature;BME280_humidity;BME280_pressure;Samples;Min_cycle;Max_cycle;Signal;HPM_P1;HPM_P2
2023/04/15 00:02:18;;;;;;;5.40;2.20;;;11.50;43.30;;;;;;5016837;28;20053;-86
2023/04/15 00:04:46;;;;;;;8.70;2.40;;;11.50;43.40;;;;;;5013170;28;20049;-84
2023/04/15 00:07:13;;;;;;;10.13;2.47;;;11.40;43.40;;;;;;5019084;28;20409;-84
2023/04/15 00:09:41;;;;;;;8.77;2.92;;;11.40;43.50;;;;;;5019536;28;20058;-85
2023/04/15 00:12:09;;;;;;;4.85;2.25;;;11.30;43.50;;;;;;5018756;28;20054;-83
2023/04/15 00:14:36;;;;;;;7.88;2.92;;;11.30;43.60;;;;;;5016593;28;20413;-82
2023/04/15 00:17:05;;;;;;;9.18;2.70;;;11.20;43.60;;;;;;5017643;28;20049;-83
2023/04/15 00:19:33;;;;;;;5.35;2.63;;;11.20;43.70;;;;;;5010142;28;20417;-83
2023/04/15 00:22:00;;;;;;;6.53;2.50;;;11.20;43.70;;;;;;5018388;28;20088;-83
2023/04/15 00:24:27;;;;;;;8.00;2.45;;;11.10;43.80;;;;;;5017028;28;20061;-83
2023/04/15 00:26:55;;;;;;;7.03;2.75;;;11.10;43.90;;;;;;5020881;28;20516;-83
2023/04/15 00:29:22;;;;;;;9.40;3.15;;;11.10;43.90;;;;;;5018638;28;20409;-83
2023/04/15 00:31:50;;;;;;;6.20;2.45;;;11.00;43.90;;;;;;5019010;28;20053;-86
2023/04/15 00:34:19;;;;;;;6.57;2.67;;;11.00;44.00;;;;;;5014364;28;20058;-84
2023/04/15 00:36:46;;;;;;;7.18;2.58;;;11.00;44.10;;;;;;5014277;28;20497;-83
2023/04/15 00:39:15;;;;;;;11.10;2.88;;;10.90;44.10;;;;;;5017337;28;20053;-83
2023/04/15 00:41:43;;;;;;;6.15;2.25;;;10.90;44.20;;;;;;5017262;28;20049;-83
2023/04/15 00:44:10;;;;;;;7.45;2.53;;;10.90;44.30;;;;;;5017875;28;20145;-83
2023/04/15 00:46:39;;;;;;;6.05;2.58;;;10.90;44.30;;;;;;5018505;28;20053;-82
2023/04/15 00:49:07;;;;;;;7.25;2.83;;;10.80;44.40;;;;;;5013761;28;20458;-85
2023/04/15 00:51:36;;;;;;;5.82;2.40;;;10.80;44.50;;;;;;5014156;28;20058;-83
2023/04/15 00:54:04;;;;;;;8.32;2.80;;;10.80;44.50;;;;;;5019506;28;20053;-83
2023/04/15 00:56:34;;;;;;;7.30;2.75;;;10.80;44.60;;;;;;5018800;28;20501;-83
2023/04/15 00:59:03;;;;;;;6.95;2.58;;;10.70;44.60;;;;;;5016179;28;20049;-84
2023/04/15 01:01:31;;;;;;;5.32;2.20;;;10.70;44.60;;;;;;5018814;28;20520;-85
2023/04/15 01:03:58;;;;;;;5.75;2.42;;;10.70;44.60;;;;;;4999522;23;20074;-44
2023/04/15 01:06:27;;;;;;;5.57;2.40;;;10.70;44.70;;;;;;4979368;28;20050;-43
2023/04/15 01:08:56;;;;;;;5.93;2.55;;;10.70;44.70;;;;;;4980276;28;20134;-43
2023/04/15 01:11:24;;;;;;;5.03;2.08;;;10.70;44.90;;;;;;4979942;28;20054;-44
2023/04/15 01:13:52;;;;;;;5.03;2.10;;;10.60;44.80;;;;;;4980606;28;20497;-43
2023/04/15 01:16:20;;;;;;;4.00;2.00;;;10.60;44.80;;;;;;4975987;28;20054;-44
2023/04/15 01:18:48;;;;;;;5.78;2.50;;;10.60;44.90;;;;;;4977260;28;20059;-44
2023/04/15 01:21:15;;;;;;;6.38;2.42;;;10.60;45.00;;;;;;4980355;28;20054;-44
2023/04/15 01:23:47;;;;;;;9.07;2.60;;;10.60;45.10;;;;;;4979983;28;20512;-44
2023/04/15 01:26:16;;;;;;;5.75;2.28;;;10.60;45.20;;;;;;4977419;28;20053;-44
2023/04/15 01:28:45;;;;;;;6.57;2.25;;;10.50;45.10;;;;;;4979319;28;20069;-44
2023/04/15 01:31:14;;;;;;;5.93;2.25;;;10.50;45.10;;;;;;4982453;28;20054;-43
2023/04/15 01:33:43;;;;;;;6.15;2.30;;;10.50;45.20;;;;;;4979083;28;20058;-44
2023/04/15 01:36:10;;;;;;;3.88;2.33;;;10.50;45.20;;;;;;4982755;28;20046;-43
2023/04/15 01:38:38;;;;;;;8.80;2.88;;;10.50;45.30;;;;;;4982421;28;20414;-44
2023/04/15 01:41:06;;;;;;;6.75;2.60;;;10.40;45.30;;;;;;4981913;28;20058;-43
2023/04/15 01:43:36;;;;;;;7.72;2.92;;;10.40;45.40;;;;;;4983047;28;20058;-43
2023/04/15 01:46:03;;;;;;;4.53;2.47;;;10.40;45.40;;;;;;4983353;28;20061;-45
2023/04/15 01:48:31;;;;;;;7.82;2.47;;;10.40;45.50;;;;;;4978868;28;20516;-44
2023/04/15 01:50:59;;;;;;;7.28;2.58;;;10.30;45.50;;;;;;4981847;28;20298;-44
2023/04/15 01:53:27;;;;;;;5.95;2.50;;;10.30;45.60;;;;;;4983545;28;20521;-45
2023/04/15 01:55:54;;;;;;;4.00;2.30;;;10.30;45.70;;;;;;4983162;28;20062;-44
2023/04/15 01:58:22;;;;;;;9.00;2.25;;;10.30;45.70;;;;;;4981208;28;20153;-43
2023/04/15 02:00:52;;;;;;;7.70;2.42;;;10.20;45.70;;;;;;4983784;28;20063;-44
2023/04/15 02:03:19;;;;;;;5.68;2.40;;;10.20;45.90;;;;;;4972631;28;20592;-46
2023/04/15 02:05:47;;;;;;;8.02;2.33;;;10.20;46.00;;;;;;4946035;28;20055;-43
2023/04/15 02:08:14;;;;;;;5.45;2.33;;;10.20;46.00;;;;;;4948020;28;20051;-43
2023/04/15 02:10:44;;;;;;;6.55;2.45;;;10.10;46.00;;;;;;4947942;28;20069;-43
2023/04/15 02:13:20;;;;;;;5.97;2.22;;;10.10;46.00;;;;;;4947660;28;20058;-44
2023/04/15 02:15:48;;;;;;;7.15;2.60;;;10.10;46.10;;;;;;4946632;28;20051;-44
2023/04/15 02:18:16;;;;;;;6.20;2.13;;;10.10;46.10;;;;;;4944787;28;20051;-44
2023/04/15 02:20:47;;;;;;;7.35;2.35;;;10.10;46.10;;;;;;4946048;28;20054;-43
2023/04/15 02:23:14;;;;;;;5.55;2.30;;;10.10;46.10;;;;;;4946485;28;20058;-44
2023/04/15 02:25:42;;;;;;;7.00;2.42;;;10.00;46.20;;;;;;4948708;28;20051;-44
2023/04/15 02:28:09;;;;;;;3.50;1.80;;;10.00;46.20;;;;;;4945821;28;20066;-42
2023/04/15 02:30:36;;;;;;;8.30;2.67;;;10.00;46.30;;;;;;4945842;28;20050;-43
2023/04/15 02:33:03;;;;;;;5.82;2.40;;;9.90;46.40;;;;;;4947247;28;20059;-43
2023/04/15 02:35:35;;;;;;;8.70;2.80;;;9.90;46.40;;;;;;4945699;28;20047;-44
2023/04/15 02:38:02;;;;;;;5.85;2.70;;;9.90;46.60;;;;;;4946814;28;20063;-43
2023/04/15 02:40:29;;;;;;;7.20;2.70;;;9.90;46.50;;;;;;4946505;28;20071;-44
2023/04/15 02:42:56;;;;;;;4.88;2.55;;;9.90;46.60;;;;;;4948696;28;20059;-43
2023/04/15 02:45:26;;;;;;;7.28;2.80;;;9.80;46.60;;;;;;4945561;28;20059;-44
2023/04/15 02:47:53;;;;;;;7.32;2.70;;;9.80;46.70;;;;;;4946235;28;20273;-44
2023/04/15 02:50:22;;;;;;;7.95;3.17;;;9.80;46.70;;;;;;4947023;28;20066;-46
2023/04/15 02:52:51;;;;;;;6.78;2.55;;;9.80;46.70;;;;;;4946783;28;20503;-44
2023/04/15 02:55:18;;;;;;;5.30;2.83;;;9.80;46.70;;;;;;4947316;28;20482;-45
2023/04/15 02:57:48;;;;;;;6.25;2.70;;;9.80;46.80;;;;;;4946611;28;20503;-44
2023/04/15 03:00:15;;;;;;;6.57;2.53;;;9.80;46.90;;;;;;4948553;28;20376;-43
2023/04/15 03:02:48;;;;;;;10.40;2.63;;;9.80;46.80;;;;;;4948539;28;20051;-43
2023/04/15 03:05:15;;;;;;;5.32;2.67;;;9.70;46.90;;;;;;4945521;28;20058;-46
2023/04/15 03:07:44;;;;;;;9.60;2.90;;;9.70;46.90;;;;;;4947270;28;20059;-44
2023/04/15 03:10:13;;;;;;;8.20;3.17;;;9.70;47.00;;;;;;4947105;28;20074;-44
2023/04/15 03:12:40;;;;;;;8.10;3.13;;;9.70;47.10;;;;;;4946519;28;20059;-44
2023/04/15 03:15:10;;;;;;;5.93;2.53;;;9.70;47.00;;;;;;4946675;28;20441;-43
2023/04/15 03:17:37;;;;;;;5.90;2.58;;;9.70;47.00;;;;;;4946700;28;20055;-45
2023/04/15 03:20:06;;;;;;;7.63;2.72;;;9.70;47.10;;;;;;4945620;28;20062;-43
2023/04/15 03:22:33;;;;;;;5.05;2.55;;;9.60;47.10;;;;;;4945666;28;20503;-44
2023/04/15 03:25:00;;;;;;;4.55;1.98;;;9.60;47.10;;;;;;4946315;28;20417;-44
2023/04/15 03:27:29;;;;;;;5.57;2.55;;;9.60;47.10;;;;;;4946160;28;20422;-44
2023/04/15 03:29:56;;;;;;;6.13;2.30;;;9.60;47.20;;;;;;4945678;28;20059;-45
2023/04/15 03:32:24;;;;;;;8.73;3.10;;;9.60;47.20;;;;;;4947693;28;20051;-44
2023/04/15 03:34:51;;;;;;;7.70;2.60;;;9.60;47.30;;;;;;4945874;28;20059;-44
2023/04/15 03:37:19;;;;;;;5.05;2.20;;;9.60;47.30;;;;;;4947017;28;20703;-43
2023/04/15 03:39:46;;;;;;;6.55;2.25;;;9.60;47.30;;;;;;4946013;28;20043;-45
2023/04/15 03:42:13;;;;;;;7.35;2.90;;;9.60;47.30;;;;;;4945692;28;20078;-43
2023/04/15 03:44:42;;;;;;;5.25;2.30;;;9.50;47.40;;;;;;4946480;28;20423;-45
2023/04/15 03:47:09;;;;;;;8.88;3.00;;;9.50;47.30;;;;;;4946826;28;20458;-44
2023/04/15 03:49:37;;;;;;;6.80;2.65;;;9.50;47.30;;;;;;4946598;28;20059;-45
2023/04/15 03:52:05;;;;;;;7.88;2.90;;;9.50;47.40;;;;;;4945540;28;20066;-43
2023/04/15 03:54:32;;;;;;;6.40;2.72;;;9.50;47.40;;;;;;4946109;28;20074;-45
2023/04/15 03:57:00;;;;;;;7.78;2.50;;;9.50;47.40;;;;;;4945778;28;20063;-46
2023/04/15 03:59:27;;;;;;;4.80;2.13;;;9.50;47.40;;;;;;4945514;28;20078;-44
2023/04/15 04:01:56;;;;;;;8.88;2.75;;;9.50;47.40;;;;;;4945994;28;20062;-45
2023/04/15 04:04:23;;;;;;;8.77;2.92;;;9.50;47.50;;;;;;4945003;28;20055;-44
2023/04/15 04:06:50;;;;;;;5.00;2.38;;;9.50;47.50;;;;;;4943770;28;20482;-44
2023/04/15 04:09:18;;;;;;;12.43;3.30;;;9.50;47.50;;;;;;4944666;28;20047;-45
2023/04/15 04:11:48;;;;;;;7.70;2.60;;;9.40;47.50;;;;;;4945917;28;20126;-44
2023/04/15 04:14:15;;;;;;;5.03;2.42;;;9.40;47.60;;;;;;4945704;28;20499;-45
2023/04/15 04:16:43;;;;;;;10.13;2.78;;;9.40;47.50;;;;;;4946156;28;20055;-44
2023/04/15 04:19:13;;;;;;;5.15;2.60;;;9.40;47.60;;;;;;4943887;28;20054;-43
2023/04/15 04:21:40;;;;;;;6.28;2.50;;;9.40;47.60;;;;;;4946196;28;20051;-44
2023/04/15 04:24:08;;;;;;;5.47;2.80;;;9.40;47.70;;;;;;4944856;28;20063;-44
2023/04/15 04:26:35;;;;;;;7.25;3.00;;;9.40;47.80;;;;;;4946699;28;20065;-44
2023/04/15 04:29:02;;;;;;;8.02;3.30;;;9.40;47.80;;;;;;4944137;28;20043;-44
2023/04/15 04:31:29;;;;;;;5.70;2.63;;;9.30;47.70;;;;;;4945381;28;20054;-44
2023/04/15 04:33:57;;;;;;;7.47;2.50;;;9.30;47.70;;;;;;4944616;28;20615;-44
2023/04/15 04:36:26;;;;;;;8.05;3.05;;;9.30;47.60;;;;;;4940678;28;20059;-43
2023/04/15 04:38:53;;;;;;;5.68;2.78;;;9.30;47.60;;;;;;4945454;28;20070;-44
2023/04/15 04:41:20;;;;;;;8.10;2.67;;;9.20;47.60;;;;;;4947461;28;20047;-44
2023/04/15 04:43:47;;;;;;;6.70;2.40;;;9.20;47.60;;;;;;4945451;28;20054;-44
2023/04/15 04:46:15;;;;;;;5.65;2.80;;;9.20;47.70;;;;;;4945558;28;20051;-44
2023/04/15 04:48:42;;;;;;;5.72;2.90;;;9.20;47.80;;;;;;4945664;28;20055;-44
2023/04/15 04:51:09;;;;;;;5.18;2.60;;;9.20;47.80;;;;;;4945984;28;20047;-44
2023/04/15 04:53:38;;;;;;;6.75;2.42;;;9.10;47.90;;;;;;4944514;28;20415;-45
2023/04/15 04:56:08;;;;;;;6.65;2.42;;;9.10;47.90;;;;;;4945111;28;20051;-45
2023/04/15 04:58:37;;;;;;;9.82;3.40;;;9.10;47.90;;;;;;4944700;28;20530;-43
2023/04/15 05:01:04;;;;;;;8.32;3.30;;;9.10;48.00;;;;;;4945527;28;20051;-43
2023/04/15 05:03:31;;;;;;;6.35;2.85;;;9.10;48.10;;;;;;4942626;28;20482;-45
2023/04/15 05:05:58;;;;;;;4.75;2.63;;;9.10;48.10;;;;;;4945148;28;20493;-47
2023/04/15 05:08:26;;;;;;;9.05;3.50;;;9.00;48.10;;;;;;4944834;28;20059;-44
2023/04/15 05:10:54;;;;;;;10.10;3.30;;;9.00;48.20;;;;;;4943965;28;20055;-45
2023/04/15 05:13:22;;;;;;;5.25;2.70;;;9.00;48.30;;;;;;4944715;28;20603;-44
2023/04/15 05:15:49;;;;;;;8.32;3.72;;;9.00;48.30;;;;;;4943024;28;21800;-45
2023/04/15 05:18:16;;;;;;;7.55;3.00;;;9.00;48.40;;;;;;4945647;28;20529;-45
2023/04/15 05:20:45;;;;;;;7.75;2.92;;;9.00;48.40;;;;;;4943508;28;20046;-44
2023/04/15 05:23:12;;;;;;;6.47;2.78;;;9.00;48.50;;;;;;4943077;28;20062;-44
2023/04/15 05:25:40;;;;;;;4.88;2.20;;;9.00;48.50;;;;;;4944610;28;20086;-43
2023/04/15 05:28:08;;;;;;;6.55;2.83;;;9.00;48.50;;;;;;4943719;28;20388;-44
2023/04/15 05:30:36;;;;;;;8.55;2.97;;;9.00;48.60;;;;;;4939363;28;20039;-44
2023/04/15 05:33:04;;;;;;;5.85;2.70;;;9.00;48.60;;;;;;4944703;28;20055;-45
2023/04/15 05:35:31;;;;;;;7.63;2.80;;;9.00;48.70;;;;;;4942776;28;20066;-43
2023/04/15 05:37:59;;;;;;;5.57;2.42;;;9.00;48.80;;;;;;4943562;28;20078;-43
2023/04/15 05:40:27;;;;;;;5.75;2.67;;;9.00;48.90;;;;;;4943665;28;20063;-44
2023/04/15 05:42:54;;;;;;;8.90;2.70;;;9.00;48.90;;;;;;4944546;28;20434;-43
2023/04/15 05:45:24;;;;;;;6.70;2.60;;;9.10;49.10;;;;;;4945388;28;20062;-43
2023/04/15 05:47:52;;;;;;;5.63;2.78;;;9.10;49.30;;;;;;4945370;28;20065;-44
2023/04/15 05:50:21;;;;;;;6.85;2.63;;;9.20;49.40;;;;;;4943650;28;20132;-44
2023/04/15 05:52:48;;;;;;;7.30;2.40;;;9.20;49.40;;;;;;4944504;28;20495;-45
2023/04/15 05:55:16;;;;;;;6.88;2.78;;;9.20;49.40;;;;;;4941691;28;20123;-44
2023/04/15 05:57:44;;;;;;;6.03;2.50;;;9.30;49.50;;;;;;4944756;28;20063;-44
2023/04/15 06:00:14;;;;;;;6.03;2.88;;;9.30;49.60;;;;;;4943437;28;20366;-44
2023/04/15 06:02:44;;;;;;;8.27;2.63;;;9.30;49.80;;;;;;4943892;28;20051;-43
2023/04/15 06:05:12;;;;;;;10.07;2.70;;;9.40;50.10;;;;;;4942868;28;20081;-43
2023/04/15 06:07:39;;;;;;;7.18;3.20;;;9.50;50.20;;;;;;4945340;28;20498;-43
2023/04/15 06:10:08;;;;;;;9.13;3.80;;;9.50;50.20;;;;;;4944561;28;20066;-44
2023/04/15 06:12:35;;;;;;;8.98;3.67;;;9.50;49.40;;;;;;4943548;28;20051;-45
2023/04/15 06:15:02;;;;;;;12.35;3.67;;;9.40;49.10;;;;;;4943689;28;20070;-43
2023/04/15 06:17:32;;;;;;;9.30;3.80;;;9.20;49.40;;;;;;4946927;28;20059;-44
2023/04/15 06:20:01;;;;;;;9.18;3.50;;;9.10;49.60;;;;;;4946728;28;20146;-44
2023/04/15 06:22:28;;;;;;;9.27;2.80;;;9.00;49.90;;;;;;4947947;28;20055;-45
2023/04/15 06:24:55;;;;;;;8.15;3.53;;;9.00;50.20;;;;;;4948266;28;20055;-43
2023/04/15 06:27:22;;;;;;;8.20;3.30;;;8.90;50.30;;;;;;4947325;28;20074;-44
2023/04/15 06:29:50;;;;;;;11.07;6.28;;;8.90;50.50;;;;;;4947540;28;20059;-43
2023/04/15 06:32:17;;;;;;;12.05;3.80;;;9.00;50.80;;;;;;4946840;28;20043;-43
2023/04/15 06:34:47;;;;;;;10.27;4.55;;;9.00;51.30;;;;;;4945746;28;20050;-45
2023/04/15 06:37:15;;;;;;;10.07;4.35;;;9.10;51.50;;;;;;4946573;28;20055;-45
2023/04/15 06:39:43;;;;;;;10.82;4.93;;;9.20;51.60;;;;;;4948470;28;20569;-44
2023/04/15 06:42:11;;;;;;;9.75;4.30;;;9.30;51.70;;;;;;4946237;28;20058;-45
2023/04/15 06:44:38;;;;;;;7.53;4.10;;;9.40;51.70;;;;;;4944854;28;20059;-47
2023/04/15 06:47:05;;;;;;;9.23;4.60;;;9.50;51.70;;;;;;4944085;28;20475;-44
2023/04/15 06:49:33;;;;;;;7.80;4.60;;;9.70;51.70;;;;;;4945016;28;20507;-44
2023/04/15 06:52:01;;;;;;;13.15;5.57;;;9.80;51.70;;;;;;4944733;28;20058;-44
2023/04/15 06:54:29;;;;;;;16.88;5.90;;;9.90;51.60;;;;;;4945695;28;20411;-44
2023/04/15 06:56:57;;;;;;;9.60;5.25;;;10.10;51.70;;;;;;4947471;28;20055;-44
2023/04/15 06:59:24;;;;;;;6.97;4.78;;;10.20;51.50;;;;;;4947558;28;20510;-43
2023/04/15 07:01:51;;;;;;;15.52;4.80;;;10.30;51.30;;;;;;4945581;28;20058;-44
2023/04/15 07:04:19;;;;;;;10.10;5.45;;;10.40;51.20;;;;;;4944512;28;20078;-44
2023/04/15 07:06:46;;;;;;;9.90;4.70;;;10.50;51.00;;;;;;4943597;28;20047;-45
2023/04/15 07:09:14;;;;;;;8.20;5.05;;;10.60;50.80;;;;;;4943240;28;20394;-45
2023/04/15 07:11:43;;;;;;;13.00;5.88;;;10.70;50.80;;;;;;4947320;28;20515;-44
2023/04/15 07:14:10;;;;;;;10.77;5.97;;;10.80;51.20;;;;;;4947048;28;20059;-43
2023/04/15 07:16:37;;;;;;;9.73;5.53;;;10.90;51.30;;;;;;4946853;28;20499;-45
2023/04/15 07:19:04;;;;;;;9.60;5.40;;;11.00;51.20;;;;;;4944791;28;20055;-44
2023/04/15 07:21:32;;;;;;;7.65;4.93;;;11.00;51.20;;;;;;4945163;28;20059;-45
2023/04/15 07:23:59;;;;;;;9.98;5.43;;;11.10;51.30;;;;;;4946083;28;20058;-45
2023/04/15 07:26:26;;;;;;;11.82;6.30;;;11.10;51.50;;;;;;4946191;28;20066;-46
2023/04/15 07:28:55;;;;;;;15.07;5.28;;;11.20;51.70;;;;;;4944969;28;20139;-44
2023/04/15 07:31:22;;;;;;;10.65;6.00;;;11.20;51.50;;;;;;4946871;28;20526;-45
2023/04/15 07:33:50;;;;;;;12.90;5.97;;;11.30;51.40;;;;;;4945154;28;20499;-46
2023/04/15 07:36:17;;;;;;;12.38;6.00;;;11.30;51.90;;;;;;4943497;28;20055;-43
2023/04/15 07:38:44;;;;;;;13.30;5.90;;;11.30;51.70;;;;;;4945418;28;20059;-44
2023/04/15 07:41:12;;;;;;;10.02;5.90;;;11.40;51.70;;;;;;4945166;28;20074;-46
2023/04/15 07:43:39;;;;;;;9.55;5.55;;;11.50;51.80;;;;;;4944973;28;20094;-45
2023/04/15 07:46:08;;;;;;;11.88;6.15;;;11.60;51.80;;;;;;4946619;28;20446;-44
2023/04/15 07:48:35;;;;;;;9.63;5.70;;;11.60;51.20;;;;;;4945807;28;23112;-43
2023/04/15 07:51:03;;;;;;;15.43;6.38;;;11.70;51.00;;;;;;4943585;28;20070;-43
2023/04/15 07:53:31;;;;;;;12.10;6.55;;;11.80;51.00;;;;;;4945828;28;20055;-43
2023/04/15 07:55:59;;;;;;;11.15;5.78;;;11.80;50.90;;;;;;4945668;28;20055;-44
2023/04/15 07:58:26;;;;;;;11.00;6.20;;;11.90;51.00;;;;;;4946005;28;20621;-44
2023/04/15 08:00:54;;;;;;;9.20;5.68;;;11.90;51.00;;;;;;4945550;28;20055;-44
2023/04/15 08:03:25;;;;;;;10.95;5.60;;;12.00;51.00;;;;;;4945646;28;20073;-44
2023/04/15 08:05:53;;;;;;;10.20;5.50;;;12.00;50.80;;;;;;4944432;28;20388;-44
2023/04/15 08:08:23;;;;;;;12.65;6.10;;;12.10;50.50;;;;;;4944690;28;20055;-47
2023/04/15 08:10:50;;;;;;;9.88;5.75;;;12.10;50.50;;;;;;4945156;28;20055;-44
2023/04/15 08:13:17;;;;;;;9.82;5.45;;;12.10;50.50;;;;;;4943421;28;20071;-48
2023/04/15 08:15:45;;;;;;;9.20;5.65;;;12.20;50.50;;;;;;4944894;28;20051;-45
2023/04/15 08:18:12;;;;;;;12.05;5.82;;;12.20;50.50;;;;;;4945176;28;20047;-44
2023/04/15 08:20:41;;;;;;;8.25;5.03;;;12.30;50.50;;;;;;4942787;28;20054;-44
2023/04/15 08:23:09;;;;;;;14.57;5.93;;;12.40;50.50;;;;;;4945817;28;20054;-43
2023/04/15 08:25:36;;;;;;;11.75;6.10;;;12.40;50.20;;;;;;4943719;28;20080;-45
2023/04/15 08:28:05;;;;;;;8.60;5.45;;;12.50;50.10;;;;;;4945710;28;20063;-47
2023/04/15 08:30:33;;;;;;;9.57;5.47;;;12.50;49.80;;;;;;4944005;28;20528;-46
2023/04/15 08:33:00;;;;;;;9.75;4.93;;;12.50;49.40;;;;;;4941981;28;20054;-46
2023/04/15 08:35:28;;;;;;;12.55;5.38;;;12.60;49.30;;;;;;4942317;28;20051;-44
2023/04/15 08:37:56;;;;;;;10.20;5.97;;;12.70;49.30;;;;;;4942638;28;20051;-45
2023/04/15 08:40:28;;;;;;;9.70;5.32;;;12.70;49.50;;;;;;4945589;28;20071;-46
2023/04/15 08:42:58;;;;;;;11.88;5.20;;;12.80;49.00;;;;;;4944487;28;20487;-45
2023/04/15 08:45:26;;;;;;;11.35;4.82;;;12.90;49.10;;;;;;4943951;28;20088;-44
2023/04/15 08:47:56;;;;;;;8.35;5.32;;;12.90;49.00;;;;;;4944287;28;20066;-44
2023/04/15 08:50:26;;;;;;;7.80;4.82;;;13.00;48.60;;;;;;4941704;28;20051;-45
2023/04/15 08:52:56;;;;;;;10.93;3.92;;;13.00;48.80;;;;;;4943798;28;20402;-48
2023/04/15 08:55:24;;;;;;;9.93;4.68;;;13.10;48.20;;;;;;4942672;28;20503;-47
2023/04/15 08:57:51;;;;;;;15.15;6.53;;;13.20;48.80;;;;;;4943367;28;20055;-45
2023/04/15 09:00:19;;;;;;;10.48;4.88;;;13.30;49.10;;;;;;4943702;28;20055;-44
2023/04/15 09:02:50;;;;;;;5.82;3.20;;;13.30;49.00;;;;;;4942850;28;20066;-45
2023/04/15 09:05:17;;;;;;;4.63;2.55;;;13.40;47.20;;;;;;4942276;28;20058;-45
2023/04/15 09:07:44;;;;;;;3.63;2.08;;;13.40;46.40;;;;;;4943163;28;20489;-49
2023/04/15 09:10:13;;;;;;;3.35;1.98;;;13.50;44.80;;;;;;4944157;28;20058;-46
2023/04/15 09:12:40;;;;;;;4.10;1.40;;;13.50;44.80;;;;;;4944933;28;20476;-47
2023/04/15 09:15:10;;;;;;;4.60;1.73;;;13.50;43.70;;;;;;4942916;28;20055;-45
2023/04/15 09:17:42;;;;;;;5.30;1.70;;;13.60;43.80;;;;;;4944226;28;20627;-46
2023/04/15 09:20:12;;;;;;;1.55;1.45;;;13.60;42.90;;;;;;4942290;28;20051;-45
2023/04/15 09:22:40;;;;;;;4.03;1.60;;;13.60;42.80;;;;;;4943113;28;20047;-45
2023/04/15 09:25:26;;;;;;;2.78;1.42;;;13.60;42.70;;;;;;4944119;28;20058;-43
2023/04/15 09:27:54;;;;;;;2.40;1.20;;;13.70;43.40;;;;;;4944666;28;20066;-47
2023/04/15 09:37:56;;;;;;;2.33;1.35;;;13.80;41.90;;;;;;4950032;28;20496;-46
2023/04/15 09:41:19;;;;;;;4.35;1.92;;;13.80;41.80;;;;;;4945569;28;20047;-45
2023/04/15 09:44:25;;;;;;;9.40;5.50;;;13.90;42.80;;;;;;4944338;28;20055;-50
2023/04/15 09:46:52;;;;;;;10.77;5.53;;;14.00;41.60;;;;;;4943887;28;20054;-48
2023/04/15 09:49:19;;;;;;;3.35;1.80;;;14.00;42.30;;;;;;4943205;28;20059;-48
2023/04/15 09:51:48;;;;;;;3.97;1.40;;;14.00;41.60;;;;;;4946293;28;20136;-45
2023/04/15 09:54:20;;;;;;;5.60;2.00;;;14.00;41.60;;;;;;4947103;28;20054;-45
2023/04/15 09:56:47;;;;;;;4.18;2.30;;;14.10;41.40;;;;;;4945524;28;20066;-48
2023/04/15 09:59:14;;;;;;;3.20;1.60;;;14.20;42.10;;;;;;4945070;28;20465;-45
2023/04/15 10:01:43;;;;;;;5.88;3.22;;;14.20;42.70;;;;;;4947503;28;20055;-48
2023/04/15 10:04:11;;;;;;;3.13;2.25;;;14.30;42.70;;;;;;4945982;28;20419;-46
2023/04/15 10:06:40;;;;;;;2.88;2.40;;;14.30;43.10;;;;;;4947385;28;20051;-46
2023/04/15 10:09:08;;;;;;;2.65;1.30;;;14.40;43.10;;;;;;4946880;28;20074;-45
2023/04/15 10:11:35;;;;;;;2.25;1.30;;;14.40;43.40;;;;;;4948188;28;20063;-45
2023/04/15 10:14:03;;;;;;;7.18;4.53;;;14.30;42.60;;;;;;4946661;28;20050;-47
2023/04/15 10:16:33;;;;;;;8.35;5.57;;;14.40;42.70;;;;;;4946784;28;20426;-45
2023/04/15 10:19:03;;;;;;;2.65;1.73;;;14.40;42.20;;;;;;4945854;28;20055;-44
2023/04/15 10:21:31;;;;;;;3.70;1.77;;;14.40;42.80;;;;;;4947572;28;20062;-45
2023/04/15 10:23:58;;;;;;;6.60;4.18;;;14.50;43.60;;;;;;4946616;28;20134;-53
2023/04/15 10:26:27;;;;;;;4.25;2.67;;;14.50;42.80;;;;;;4946159;28;20899;-50
2023/04/15 10:28:55;;;;;;;3.08;1.98;;;14.50;42.40;;;;;;4946833;28;20051;-45
2023/04/15 10:31:23;;;;;;;1.90;1.25;;;14.50;42.20;;;;;;4946876;28;20058;-48
2023/04/15 10:33:52;;;;;;;2.30;1.50;;;14.50;42.00;;;;;;4945586;28;20058;-54
2023/04/15 10:36:21;;;;;;;2.85;1.58;;;14.40;42.10;;;;;;4946467;28;20062;-46
2023/04/15 10:38:48;;;;;;;1.27;1.05;;;14.40;43.20;;;;;;4946461;28;20066;-49
2023/04/15 10:41:18;;;;;;;1.75;1.15;;;14.50;42.50;;;;;;4946209;28;20074;-48
2023/04/15 10:43:48;;;;;;;2.25;1.20;;;14.50;42.90;;;;;;4945881;28;20062;-45
2023/04/15 10:46:19;;;;;;;4.18;1.60;;;14.50;43.50;;;;;;4946060;28;20055;-48
2023/04/15 10:48:51;;;;;;;5.57;3.00;;;14.60;44.00;;;;;;4946242;28;20154;-47
2023/04/15 10:51:30;;;;;;;4.25;2.22;;;14.60;43.40;;;;;;4946799;28;20062;-48
2023/04/15 10:53:59;;;;;;;2.42;1.73;;;14.70;43.00;;;;;;4946851;28;20142;-51
2023/04/15 10:56:29;;;;;;;3.33;1.90;;;14.70;42.80;;;;;;4948185;28;20062;-45
2023/04/15 10:58:58;;;;;;;15.98;10.13;;;14.70;43.10;;;;;;4945422;28;20062;-50
2023/04/15 11:01:52;;;;;;;4.00;1.90;;;14.80;43.80;;;;;;4946557;28;20055;-52
2023/04/15 11:04:53;;;;;;;2.92;1.63;;;14.80;43.80;;;;;;4946265;28;20055;-46
2023/04/15 11:07:53;;;;;;;3.42;1.90;;;14.70;43.10;;;;;;4933696;28;20043;-49
2023/04/15 11:10:56;;;;;;;3.22;2.17;;;14.70;43.10;;;;;;4922956;28;20058;-47
2023/04/15 11:13:28;;;;;;;3.47;2.30;;;14.60;43.70;;;;;;4946153;28;20051;-50
2023/04/15 11:16:02;;;;;;;4.75;2.72;;;14.50;43.50;;;;;;4947326;28;20423;-53
2023/04/15 11:18:31;;;;;;;4.45;2.88;;;14.60;43.90;;;;;;4945142;28;20137;-47
2023/04/15 11:21:01;;;;;;;3.72;2.83;;;14.50;43.30;;;;;;4946239;28;20059;-48
2023/04/15 11:23:33;;;;;;;5.55;3.20;;;14.50;43.80;;;;;;4946192;28;20047;-52
2023/04/15 11:26:02;;;;;;;4.70;3.05;;;14.50;44.40;;;;;;4945661;28;20058;-47
2023/04/15 11:28:30;;;;;;;3.97;3.33;;;14.50;44.20;;;;;;4946193;28;20059;-50
2023/04/15 11:30:59;;;;;;;4.85;3.22;;;14.50;44.40;;;;;;4946177;28;20609;-47
2023/04/15 11:33:26;;;;;;;5.38;3.55;;;14.50;44.70;;;;;;4944811;28;20173;-47
2023/04/15 11:35:54;;;;;;;5.18;3.88;;;14.50;45.10;;;;;;4945968;28;20066;-52
2023/04/15 11:38:22;;;;;;;6.82;4.28;;;14.50;45.10;;;;;;4945488;28;20385;-52
2023/04/15 11:40:51;;;;;;;7.38;5.10;;;14.50;45.40;;;;;;4945163;28;20051;-49
2023/04/15 11:43:21;;;;;;;6.43;5.22;;;14.50;45.30;;;;;;4946411;28;20060;-53
2023/04/15 11:45:53;;;;;;;6.15;4.93;;;14.40;45.10;;;;;;4946250;28;20063;-52
2023/04/15 11:48:22;;;;;;;6.20;4.65;;;14.40;45.60;;;;;;4946678;28;20063;-45
2023/04/15 11:50:54;;;;;;;6.95;5.10;;;14.40;45.90;;;;;;4945040;28;20054;-53
2023/04/15 11:53:22;;;;;;;4.80;4.30;;;14.30;45.40;;;;;;4946034;28;20111;-47
2023/04/15 11:55:53;;;;;;;7.13;4.47;;;14.30;45.70;;;;;;4945353;28;20055;-47
2023/04/15 11:58:22;;;;;;;6.93;4.75;;;14.30;45.80;;;;;;4946584;28;20051;-47
2023/04/15 12:00:51;;;;;;;4.70;3.88;;;14.30;46.20;;;;;;4944812;28;20059;-45
2023/04/15 12:03:23;;;;;;;5.35;3.42;;;14.30;46.50;;;;;;4945587;28;20055;-50
2023/04/15 12:06:11;;;;;;;4.97;4.15;;;14.30;46.10;;;;;;4944053;28;20403;-48
2023/04/15 12:09:00;;;;;;;4.32;3.72;;;14.30;46.30;;;;;;4945307;28;20058;-51
2023/04/15 12:11:31;;;;;;;5.32;4.65;;;14.30;46.50;;;;;;4944875;28;20070;-46
2023/04/15 12:14:03;;;;;;;6.10;4.70;;;14.40;46.50;;;;;;4944840;28;20594;-49
2023/04/15 12:16:30;;;;;;;5.22;4.30;;;14.30;46.40;;;;;;4945526;28;20050;-48
2023/04/15 12:18:59;;;;;;;5.50;4.45;;;14.30;46.50;;;;;;4944104;28;20055;-49
2023/04/15 12:21:28;;;;;;;5.38;4.55;;;14.30;46.60;;;;;;4944978;28;20058;-48
2023/04/15 12:23:57;;;;;;;5.90;4.50;;;14.20;46.80;;;;;;4945059;28;20638;-45
2023/04/15 12:26:30;;;;;;;7.13;3.90;;;14.20;47.10;;;;;;4943523;28;20471;-50
2023/04/15 12:29:01;;;;;;;4.78;3.67;;;14.10;47.20;;;;;;4944378;28;20062;-51
2023/04/15 12:31:29;;;;;;;5.25;3.80;;;14.00;47.50;;;;;;4942661;28;20065;-47
2023/04/15 12:33:57;;;;;;;6.07;4.20;;;14.00;47.50;;;;;;4943338;28;20502;-50
2023/04/15 12:36:24;;;;;;;11.63;5.15;;;13.90;47.60;;;;;;4943382;28;20055;-49
2023/04/15 12:38:52;;;;;;;6.57;4.65;;;13.90;47.80;;;;;;4945385;28;20054;-50
2023/04/15 12:41:21;;;;;;;6.22;4.78;;;13.90;47.60;;;;;;4944657;28;20058;-53
2023/04/15 12:43:50;;;;;;;7.18;4.57;;;13.90;47.80;;;;;;4943903;28;20687;-49
2023/04/15 12:46:17;;;;;;;5.65;4.05;;;13.80;48.00;;;;;;4943528;28;20055;-48
2023/04/15 12:48:45;;;;;;;4.35;3.95;;;13.70;48.10;;;;;;4943490;28;20487;-46
2023/04/15 12:51:12;;;;;;;5.55;4.22;;;13.60;48.30;;;;;;4942983;28;20496;-49
2023/04/15 12:53:39;;;;;;;5.30;4.15;;;13.60;48.80;;;;;;4944296;28;20054;-48
2023/04/15 12:56:07;;;;;;;5.63;3.80;;;13.50;48.90;;;;;;4944030;28;20074;-48
2023/04/15 12:58:34;;;;;;;5.45;4.38;;;13.50;49.30;;;;;;4943292;28;20137;-48
2023/04/15 13:01:02;;;;;;;8.65;4.43;;;13.50;49.20;;;;;;4944596;28;20084;-47
2023/04/15 13:03:30;;;;;;;5.75;4.25;;;13.50;49.80;;;;;;4942112;28;20055;-49
2023/04/15 13:05:57;;;;;;;6.85;4.55;;;13.40;50.00;;;;;;4945579;28;20498;-52